Flight Track Log - Related Links

Times and Time Zones

All times are in EDT time to prevent confusion due to time zone crossing. See the DAL6225 flight status page for this flight to view local times or setup timezone preferences in your user account.

Time Position Orientation Groundspeed Altitude Reporting Facility
EDT Latitude Longitude Course Direction KTS MPH feet Rate Location/Type
Tue 08:28:07 AM 43.0981 -89.3078 90° East 235 270 2,700  Level Chicago Center
Tue 08:29:09 AM 43.0989 -89.2147 89° East 242 278 4,300 2,177 Climbing Chicago Center
Tue 08:30:11 AM 43.1028 -89.0819 88° East 289 333 7,200 2,710 Climbing Chicago Center
Tue 08:31:13 AM 43.1047 -88.9631 89° East 311 358 9,900 2,177 Climbing Chicago Center
Tue 08:32:15 AM 43.1067 -88.8361 89° East 331 381 11,700 1,597 Climbing Chicago Center
Tue 08:33:00 AM 43.1167 -88.4509 90° East  Level FlightAware Approximate
Tue 08:33:17 AM 43.1106 -88.6936 88° East 372 428 13,200  Level Chicago Center
Tue 08:34:19 AM 43.1125 -88.5447 89° East 390 449 15,000 1,854 Climbing Chicago Center
Tue 08:35:20 AM 43.1139 -88.3636 89° East 410 472 17,000 1,951 Climbing Chicago Center
Tue 08:36:22 AM 43.1186 -88.2047 88° East 420 483 19,000 1,984 Climbing Chicago Center
Tue 08:37:24 AM 43.1264 -88.0492 86° East 414 476 21,100 1,694 Climbing Chicago Center
Tue 08:38:26 AM 43.1347 -87.8914 86° East 418 481 22,500 1,306 Climbing Chicago Center
Tue 08:39:28 AM 43.1411 -87.7256 87° East 432 497 23,800 1,258 Climbing Chicago Center
Tue 08:40:30 AM 43.1503 -87.5258 86° East 451 519 25,100 976 Climbing Chicago Center
Tue 08:41:31 AM 43.1575 -87.3567 87° East 465 535 25,800 780 Climbing Chicago Center
Tue 08:42:33 AM 43.1656 -87.1725 87° East 484 557 26,700 823 Climbing Chicago Center
Tue 08:43:35 AM 43.1728 -86.9819 87° East 499 574 27,500 774 Climbing Chicago Center
Tue 08:44:37 AM 43.1806 -86.7861 87° East 513 590 28,300 780 Climbing Chicago Center
Tue 08:45:38 AM 43.1878 -86.5889 87° East 519 597 29,100 780 Climbing Chicago Center
Tue 08:46:40 AM 43.1969 -86.3442 87° East 532 612 29,900 726 Climbing Chicago Center
Tue 08:47:42 AM 43.2036 -86.1331 87° East 544 626 30,600 732 Climbing Chicago Center
Tue 08:48:43 AM 43.2106 -85.9172 87° East 551 634 31,400 829 Climbing Chicago Center
Tue 08:49:45 AM 43.2153 -85.7050 88° East 550 633 32,300 919 Climbing Chicago Center
Tue 08:50:47 AM 43.2211 -85.4933 88° East 552 635 33,300 1,113 Climbing Chicago Center
Tue 08:51:49 AM 43.2256 -85.2864 88° East 547 629 34,600 829 Climbing Chicago Center
Tue 08:52:50 AM 43.2292 -85.0856 89° East 539 620 35,000 198 Climbing Cleveland Center
Tue 08:53:50 AM 43.2322 -84.8950 89° East 513 590 35,000 400 Level Cleveland Center
Tue 08:54:50 AM 43.2347 -84.7069 89° East 497 572 35,800 950 Climbing Cleveland Center
Tue 08:55:50 AM 43.2392 -84.5219 88° East 492 566 36,900 600 Climbing Cleveland Center
Tue 08:56:50 AM 43.2411 -84.3367 89° East 487 560 37,000 50 Climbing Cleveland Center
Tue 08:57:50 AM 43.2431 -84.1431 89° East 494 568 37,000 50 Level Cleveland Center
Tue 08:58:50 AM 43.2467 -83.9550 88° East 494 568 37,100  Climbing Cleveland Center
Tue 08:59:50 AM 43.2500 -83.7642 89° East 494 568 37,000 -50 Descending Cleveland Center
Tue 09:00:50 AM 43.2508 -83.5733 90° East 494 568 37,000  Level Cleveland Center
Tue 09:01:50 AM 43.2536 -83.3881 89° East 494 568 37,000  Level Cleveland Center
Tue 09:02:50 AM 43.2536 -83.2000 90° East 489 563 37,000  Level Cleveland Center
Tue 09:03:50 AM 43.2558 -83.0119 89° East 489 563 37,000  Level Cleveland Center
Tue 09:04:50 AM 43.2556 -82.8208 90° East 500 575 37,000  Level Cleveland Center
Tue 09:05:50 AM 43.2506 -82.6325 92° East 494 568 37,000  Level Cleveland Center
Tue 09:06:13 AM 43.2333 -82.5333 103° East 490 564 37,000  Level Toronto Center
Tue 09:07:13 AM 43.2167 -82.3333 96° East 490 564 37,000  Level Toronto Center
Tue 09:08:13 AM 43.2000 -82.1667 98° East 500 575 37,000  Level Toronto Center
Tue 09:09:13 AM 43.1833 -81.9667 96° East 500 575 37,000  Level Toronto Center
Tue 09:10:13 AM 43.1833 -81.7833 90° East 490 564 37,000  Level Toronto Center
Tue 09:11:13 AM 43.1667 -81.6000 97° East 490 564 37,000  Level Toronto Center
Tue 09:12:13 AM 43.1500 -81.4167 97° East 490 564 37,000  Level Toronto Center
Tue 09:13:13 AM 43.1333 -81.2333 97° East 490 564 37,000  Level Toronto Center
Tue 09:14:13 AM 43.1167 -81.0500 97° East 480 552 37,000  Level Toronto Center
Tue 09:15:13 AM 43.1000 -80.8667 97° East 480 552 37,000  Level Toronto Center
Tue 09:16:13 AM 43.1000 -80.6833 90° East 470 541 37,000  Level Toronto Center
Tue 09:17:13 AM 43.0833 -80.5167 98° East 470 541 37,000  Level Toronto Center
Tue 09:18:13 AM 43.0833 -80.3167 90° East 480 552 37,000  Level Toronto Center
Tue 09:19:13 AM 43.0667 -80.1500 98° East 480 552 37,000  Level Toronto Center
Tue 09:20:13 AM 43.0500 -79.9500 96° East 490 564 37,000  Level Toronto Center
Tue 09:21:13 AM 43.0333 -79.8000 99° East 480 552 37,000  Level Toronto Center
Tue 09:22:13 AM 43.0167 -79.5833 96° East 480 552 37,000  Level Toronto Center
Tue 09:23:13 AM 43.0000 -79.4333 99° East 470 541 37,000  Level Toronto Center
Tue 09:24:13 AM 42.9833 -79.2500 97° East 460 529 37,000  Level Toronto Center
Tue 09:25:13 AM 42.9667 -79.0833 98° East 460 529 37,000  Level Toronto Center
Tue 09:26:13 AM 42.9500 -78.9000 97° East 450 518 37,000  Level Toronto Center
Tue 09:27:13 AM 42.9333 -78.7500 99° East 450 518 37,000  Level Toronto Center
Tue 09:27:38 AM 42.9344 -78.6889 89° East 448 516 37,000  Level Cleveland Center
Tue 09:28:38 AM 42.9172 -78.5250 98° East 448 516 37,000  Level Cleveland Center
Tue 09:29:38 AM 42.8992 -78.3528 98° East 448 516 37,000  Level Cleveland Center
Tue 09:30:38 AM 42.8861 -78.2172 97° East 448 516 37,000  Level Cleveland Center
Tue 09:31:38 AM 42.8656 -78.0339 99° East 448 516 37,000  Level Cleveland Center
Tue 09:32:38 AM 42.8469 -77.8589 98° East 448 516 37,000  Level Cleveland Center
Tue 09:33:38 AM 42.8283 -77.6869 98° East 448 516 37,000  Level Cleveland Center
Tue 09:34:38 AM 42.8050 -77.5125 100° East 459 528 37,000  Level Cleveland Center
Tue 09:35:38 AM 42.7794 -77.3414 101° East 466 536 37,000  Level Cleveland Center
Tue 09:37:13 AM 42.7333 -77.0167 101° East 470 541 37,000  Level Toronto Center
Tue 09:38:03 AM 42.7206 -76.9231 100° East 472 543 37,000  Level Boston Center
Tue 09:39:03 AM 42.6958 -76.7544 101° East 466 536 37,000  Level Boston Center
Tue 09:40:03 AM 42.6708 -76.5833 101° East 461 531 37,000  Level Boston Center
Tue 09:41:03 AM 42.6478 -76.4122 100° East 461 531 37,000 -50 Level Boston Center
Tue 09:42:03 AM 42.6206 -76.2297 101° East 456 525 36,900 -750 Descending Boston Center
Tue 09:43:03 AM 42.5928 -76.0589 102° East 456 525 35,500 -1,350 Descending Boston Center
Tue 09:44:03 AM 42.5689 -75.8911 101° East 456 525 34,200 -1,300 Descending Boston Center
Tue 09:45:03 AM 42.5406 -75.7203 103° East 456 525 32,900 -1,300 Descending Boston Center
Tue 09:46:03 AM 42.5178 -75.5697 102° East 456 525 31,600 -1,300 Descending Boston Center
Tue 09:47:03 AM 42.4931 -75.4081 102° East 451 519 30,300 -1,350 Descending Boston Center
Tue 09:48:03 AM 42.4636 -75.2461 104° East 446 513 28,900 -1,600 Descending Boston Center
Tue 09:49:03 AM 42.4131 -75.0978 115° Southeast 440 506 27,100 -1,800 Descending Boston Center
Tue 09:50:03 AM 42.3600 -74.9522 116° Southeast 429 494 25,300 -1,800 Descending Boston Center
Tue 09:51:03 AM 42.3069 -74.8067 116° Southeast 429 494 23,500 -1,800 Descending Boston Center
Tue 09:52:03 AM 42.2536 -74.6672 117° Southeast 429 494 21,700 -1,800 Descending Boston Center
Tue 09:53:03 AM 42.2019 -74.5281 117° Southeast 424 488 19,900 -1,850 Descending Boston Center
Tue 09:54:03 AM 42.1461 -74.3778 117° Southeast 413 475 18,000 -950 Descending Boston Center
Tue 09:55:03 AM 42.0814 -74.2611 127° Southeast 395 455 18,000 -50 Level Boston Center
Tue 09:56:03 AM 41.9886 -74.1969 153° Southeast 368 423 17,900 -600 Descending Boston Center
Tue 09:57:03 AM 41.8917 -74.1386 156° South 373 429 16,800 -1,300 Descending Boston Center
Tue 09:58:03 AM 41.7986 -74.0831 156° South 380 437 15,300 -1,550 Descending Boston Center
Tue 09:59:03 AM 41.7119 -74.0281 155° Southeast 361 415 13,700 -1,750 Descending Boston Center
Tue 10:00:03 AM 41.6314 -73.9789 155° Southeast 339 390 11,800 -1,650 Descending Boston Center
Tue 10:01:03 AM 41.5569 -73.9325 155° Southeast 314 361 10,400 -880 Descending Boston Center
Tue 10:03:14 AM 41.4000 -73.8333 155° Southeast 275 316 9,000 -880 Descending New York TRACON
Tue 10:04:14 AM 41.3333 -73.8000 159° South 274 315 7,600 -1,300 Descending New York TRACON
Tue 10:05:14 AM 41.2833 -73.7333 135° Southeast 253 291 6,400 -1,150 Descending New York TRACON
Tue 10:06:14 AM 41.2167 -73.6833 151° Southeast 256 295 5,300 -1,100 Descending New York TRACON
Tue 10:07:14 AM 41.1667 -73.6333 143° Southeast 251 289 4,200 -324 Descending New York TRACON
Tue 10:09:00 AM 40.9903 -73.6764 217° Southwest  Level FlightAware Approximate
Tue 10:10:15 AM 40.9667 -73.7167 217° Southwest 260 299 4,000  Level New York TRACON
Tue 10:11:15 AM 40.9500 -73.8167 258° West 272 313 4,000  Level New York TRACON
Tue 10:12:15 AM 40.9333 -73.9000 255° West 277 319 4,000  Level New York TRACON
Tue 10:14:15 AM 40.8333 -73.9833 212° Southwest 193 222 4,000  Level New York TRACON
Tue 10:15:15 AM 40.7833 -74.0167 207° Southwest 196 226 4,000  Level New York TRACON
Tue 10:16:15 AM 40.7333 -74.0333 194° South 193 222 4,000  Level New York TRACON
Tue 10:17:15 AM 40.6833 -74.0667 207° Southwest 193 222 4,000 -496 Level New York TRACON
Tue 10:18:16 AM 40.6333 -74.0667 180° South 191 220 3,000 -431 Descending New York TRACON
Tue 10:20:16 AM 40.6500 -73.9833 75° East 149 171 2,700 -150 Descending New York TRACON

Login

Don't have an account? Register now (free) for customized features, flight alerts, and more!